createdAt,value
2023-04-26T00:00:55.458Z,20.6
2023-04-26T00:02:11.595Z,20.6
2023-04-26T00:03:27.739Z,20.6
2023-04-26T00:04:43.871Z,20.6
2023-04-26T00:06:00.004Z,20.6
2023-04-26T00:07:16.149Z,20.5
2023-04-26T00:08:32.270Z,20.5
2023-04-26T00:09:48.434Z,20.4
2023-04-26T00:11:04.550Z,20.3
2023-04-26T00:12:20.683Z,20.3
2023-04-26T00:13:36.823Z,20.3
2023-04-26T00:14:52.952Z,20.2
2023-04-26T00:16:09.111Z,20.2
2023-04-26T00:17:25.232Z,20.2
2023-04-26T00:18:41.373Z,20.2
2023-04-26T00:19:57.512Z,20.2
2023-04-26T00:21:13.646Z,20.2
2023-04-26T00:22:29.778Z,20.2
2023-04-26T00:23:45.914Z,20.3
2023-04-26T00:25:02.047Z,20.4
2023-04-26T00:26:18.177Z,20.5
2023-04-26T00:27:34.316Z,20.5
2023-04-26T00:28:50.523Z,20.6
2023-04-26T00:30:05.726Z,20.6
2023-04-26T00:31:20.881Z,20.7
2023-04-26T00:32:37.027Z,20.7
2023-04-26T00:33:53.160Z,20.7
2023-04-26T00:35:09.301Z,20.7
2023-04-26T00:36:25.435Z,20.7
2023-04-26T00:37:41.555Z,20.7
2023-04-26T00:38:57.706Z,20.6
2023-04-26T00:40:13.847Z,20.5
2023-04-26T00:41:29.971Z,20.5
2023-04-26T00:42:46.104Z,20.4
2023-04-26T00:45:18.393Z,20.3
2023-04-26T00:46:34.524Z,20.3
2023-04-26T00:47:50.650Z,20.3
2023-04-26T00:49:06.792Z,20.3
2023-04-26T00:50:22.926Z,20.3
2023-04-26T00:51:39.064Z,20.3
2023-04-26T00:52:55.191Z,20.3
2023-04-26T00:54:11.326Z,20.4
2023-04-26T00:55:27.468Z,20.4
2023-04-26T00:56:43.596Z,20.5
2023-04-26T00:57:59.739Z,20.5
2023-04-26T00:59:15.870Z,20.6
2023-04-26T01:00:32.011Z,20.6
2023-04-26T01:01:48.147Z,20.6
2023-04-26T01:03:04.271Z,20.6
2023-04-26T01:04:20.427Z,20.6
2023-04-26T01:05:36.565Z,20.6
2023-04-26T01:06:52.698Z,20.6
2023-04-26T01:08:08.818Z,20.6
2023-04-26T01:09:24.965Z,20.5
2023-04-26T01:10:41.100Z,20.5
2023-04-26T01:11:57.241Z,20.4
2023-04-26T01:13:13.375Z,20.4
2023-04-26T01:14:29.509Z,20.4
2023-04-26T01:15:45.647Z,20.3
2023-04-26T01:17:01.776Z,20.3
2023-04-26T01:18:17.988Z,20.3
2023-04-26T01:19:33.211Z,20.3
2023-04-26T01:20:48.431Z,20.3
2023-04-26T01:22:04.557Z,20.3
2023-04-26T01:23:20.683Z,20.3
2023-04-26T01:24:36.822Z,20.3
2023-04-26T01:25:52.953Z,20.3
2023-04-26T01:27:09.112Z,20.3
2023-04-26T01:28:25.242Z,20.4
2023-04-26T01:30:57.494Z,20.5
2023-04-26T01:32:13.628Z,20.5
2023-04-26T01:33:29.791Z,20.6
2023-04-26T01:34:45.916Z,20.6
2023-04-26T01:36:02.047Z,20.5
2023-04-26T01:37:18.184Z,20.5
2023-04-26T01:38:34.322Z,20.5
2023-04-26T01:39:50.472Z,20.5
2023-04-26T01:41:06.597Z,20.5
2023-04-26T01:42:22.734Z,20.5
2023-04-26T01:43:38.867Z,20.5
2023-04-26T01:44:54.986Z,20.4
2023-04-26T01:46:11.151Z,20.4
2023-04-26T01:47:27.283Z,20.3
2023-04-26T01:48:43.415Z,20.3
2023-04-26T01:49:59.551Z,20.3
2023-04-26T01:51:15.684Z,20.3
2023-04-26T01:52:31.889Z,20.3
2023-04-26T01:53:47.121Z,20.2
2023-04-26T01:55:02.322Z,20.2
2023-04-26T01:56:18.472Z,20.2
2023-04-26T01:57:34.612Z,20.3
2023-04-26T01:58:50.000Z,20.3
2023-04-26T02:00:06.875Z,20.3
2023-04-26T02:01:23.012Z,20.3
2023-04-26T02:02:39.140Z,20.4
2023-04-26T02:03:55.289Z,20.4
2023-04-26T02:05:11.422Z,20.4
2023-04-26T02:06:27.554Z,20.5
2023-04-26T02:07:43.681Z,20.5
2023-04-26T02:08:59.833Z,20.5
2023-04-26T02:10:15.967Z,20.6
2023-04-26T02:11:32.088Z,20.5
2023-04-26T02:12:48.231Z,20.6
2023-04-26T02:14:04.366Z,20.6
2023-04-26T02:15:20.509Z,20.6
2023-04-26T02:16:36.647Z,20.6
2023-04-26T02:17:52.775Z,20.6
2023-04-26T02:19:08.916Z,20.6
2023-04-26T02:20:25.039Z,20.6
2023-04-26T02:21:41.184Z,20.6
2023-04-26T02:22:57.314Z,20.5
2023-04-26T02:24:13.463Z,20.5
2023-04-26T02:25:29.582Z,20.5
2023-04-26T02:26:45.772Z,20.5
2023-04-26T02:28:01.055Z,20.5
2023-04-26T02:29:16.288Z,20.6
2023-04-26T02:30:31.489Z,20.6
2023-04-26T02:31:47.627Z,20.6
2023-04-26T02:33:03.769Z,20.6
2023-04-26T02:34:19.899Z,20.6
2023-04-26T02:35:36.026Z,20.7
2023-04-26T02:36:52.180Z,20.6
2023-04-26T02:38:08.306Z,20.6
2023-04-26T02:39:24.445Z,20.6
2023-04-26T02:40:40.563Z,20.6
2023-04-26T02:41:56.711Z,20.6
2023-04-26T02:43:12.854Z,20.6
2023-04-26T02:44:28.988Z,20.6
2023-04-26T02:45:45.121Z,20.6
2023-04-26T02:47:01.251Z,20.6
2023-04-26T02:48:17.385Z,20.5
2023-04-26T02:49:33.531Z,20.5
2023-04-26T02:50:49.674Z,20.5
2023-04-26T02:52:05.791Z,20.5
2023-04-26T02:53:21.926Z,20.5
2023-04-26T02:54:38.056Z,20.4
2023-04-26T02:55:54.216Z,20.4
2023-04-26T02:57:10.341Z,20.4
2023-04-26T02:58:26.481Z,20.4
2023-04-26T02:59:42.615Z,20.4
2023-04-26T03:00:58.740Z,20.4
2023-04-26T03:02:14.950Z,20.4
2023-04-26T03:03:30.192Z,20.4
2023-04-26T03:04:45.408Z,20.4
2023-04-26T03:06:01.543Z,20.4
2023-04-26T03:07:17.674Z,20.4
2023-04-26T03:08:33.797Z,20.5
2023-04-26T03:09:49.947Z,20.5
2023-04-26T03:11:06.065Z,20.5
2023-04-26T03:12:22.229Z,20.5
2023-04-26T03:13:38.362Z,20.5
2023-04-26T03:14:54.492Z,20.5
2023-04-26T03:16:10.618Z,20.5
2023-04-26T03:17:26.750Z,20.5
2023-04-26T03:18:42.907Z,20.5
2023-04-26T03:19:59.042Z,20.5
2023-04-26T03:21:15.174Z,20.5
2023-04-26T03:22:31.297Z,20.5
2023-04-26T03:23:47.427Z,20.5
2023-04-26T03:25:03.577Z,20.5
2023-04-26T03:26:19.702Z,20.5
2023-04-26T03:27:35.851Z,20.5
2023-04-26T03:28:51.985Z,20.5
2023-04-26T03:30:08.102Z,20.4
2023-04-26T03:31:24.252Z,20.5
2023-04-26T03:32:40.385Z,20.5
2023-04-26T03:33:56.529Z,20.5
2023-04-26T03:35:12.650Z,20.5
2023-04-26T03:36:28.847Z,20.5
2023-04-26T03:37:44.093Z,20.5
2023-04-26T03:38:59.293Z,20.5
2023-04-26T03:40:14.455Z,20.5
2023-04-26T03:41:30.580Z,20.5
2023-04-26T03:42:46.715Z,20.5
2023-04-26T03:44:02.852Z,20.5
2023-04-26T03:45:18.980Z,20.5
2023-04-26T03:46:35.121Z,20.6
2023-04-26T03:47:51.253Z,20.6
2023-04-26T03:49:07.389Z,20.5
2023-04-26T03:50:23.520Z,20.5
2023-04-26T03:51:39.649Z,20.5
2023-04-26T03:52:55.803Z,20.5
2023-04-26T03:54:11.939Z,20.5
2023-04-26T03:55:28.066Z,20.5
2023-04-26T03:56:44.205Z,20.5
2023-04-26T03:58:00.336Z,20.5
2023-04-26T03:59:16.487Z,20.5
2023-04-26T04:00:32.617Z,20.4
2023-04-26T04:01:48.755Z,20.4
2023-04-26T04:03:04.882Z,20.4
2023-04-26T04:04:21.012Z,20.4
2023-04-26T04:05:37.173Z,20.4
2023-04-26T04:06:53.304Z,20.5
2023-04-26T04:08:09.425Z,20.5
2023-04-26T04:09:25.568Z,20.5
2023-04-26T04:10:41.702Z,20.5
2023-04-26T04:11:57.836Z,20.5
2023-04-26T04:13:13.969Z,20.5
2023-04-26T04:14:30.103Z,20.5
2023-04-26T04:15:46.240Z,20.5
2023-04-26T04:17:02.378Z,20.5
2023-04-26T04:18:18.517Z,20.5
2023-04-26T04:19:34.655Z,20.5
2023-04-26T04:20:50.783Z,20.5
2023-04-26T04:22:06.922Z,20.5
2023-04-26T04:23:23.060Z,20.5
2023-04-26T04:24:39.205Z,20.5
2023-04-26T04:25:55.339Z,20.5
2023-04-26T04:27:11.528Z,20.6
2023-04-26T04:28:26.779Z,20.6
2023-04-26T04:29:42.060Z,20.6
2023-04-26T04:30:57.297Z,20.6
2023-04-26T04:32:12.504Z,20.6
2023-04-26T04:33:28.635Z,20.6
2023-04-26T04:34:44.777Z,20.6
2023-04-26T04:36:00.910Z,20.6
2023-04-26T04:37:17.043Z,20.6
2023-04-26T04:38:33.173Z,20.7
2023-04-26T04:39:49.312Z,20.7
2023-04-26T04:41:05.438Z,20.7
2023-04-26T04:42:21.576Z,20.7
2023-04-26T04:43:37.722Z,20.7
2023-04-26T04:44:53.868Z,20.7
2023-04-26T04:46:09.994Z,20.7
2023-04-26T04:47:26.135Z,20.7
2023-04-26T04:48:42.261Z,20.7
2023-04-26T04:49:58.394Z,20.7
2023-04-26T04:51:14.531Z,20.7
2023-04-26T04:52:30.673Z,20.7
2023-04-26T04:53:46.807Z,20.7
2023-04-26T04:55:02.946Z,20.7
2023-04-26T04:56:19.071Z,20.7
2023-04-26T04:57:35.212Z,20.7
2023-04-26T04:58:51.364Z,20.7
2023-04-26T05:00:07.485Z,20.7
2023-04-26T05:01:23.621Z,20.7
2023-04-26T05:02:39.745Z,20.7
2023-04-26T05:03:55.960Z,20.7
2023-04-26T05:05:11.171Z,20.7
2023-04-26T05:06:26.314Z,20.8
2023-04-26T05:07:42.462Z,20.7
2023-04-26T05:08:58.608Z,20.7
2023-04-26T05:10:14.723Z,20.7
2023-04-26T05:11:30.867Z,20.8
2023-04-26T05:12:46.999Z,20.8
2023-04-26T05:14:03.147Z,20.8
2023-04-26T05:15:19.276Z,20.8
2023-04-26T05:16:35.404Z,20.8
2023-04-26T05:17:51.553Z,20.9
2023-04-26T05:19:07.679Z,20.9
2023-04-26T05:20:23.835Z,20.9
2023-04-26T05:21:39.961Z,20.9
2023-04-26T05:22:56.094Z,20.9
2023-04-26T05:24:12.227Z,20.9
2023-04-26T05:25:28.356Z,20.9
2023-04-26T05:26:44.495Z,20.9
2023-04-26T05:28:00.630Z,20.9
2023-04-26T05:29:16.772Z,20.9
2023-04-26T05:30:32.900Z,21
2023-04-26T05:31:49.031Z,21
2023-04-26T05:33:05.185Z,21
2023-04-26T05:34:21.310Z,21
2023-04-26T05:35:37.452Z,21
2023-04-26T05:36:53.583Z,21
2023-04-26T05:38:09.715Z,21
2023-04-26T05:39:25.857Z,21
2023-04-26T05:40:42.007Z,21.1
2023-04-26T05:41:58.124Z,21.1
2023-04-26T05:43:14.268Z,21.1
2023-04-26T05:44:30.401Z,21.2
2023-04-26T05:45:46.538Z,21.2
2023-04-26T05:47:02.683Z,21.2
2023-04-26T05:48:18.816Z,21.2
2023-04-26T05:49:34.939Z,21.2
2023-04-26T05:50:51.078Z,21.2
2023-04-26T05:52:07.220Z,21.2
2023-04-26T05:53:23.418Z,21.2
2023-04-26T05:54:38.621Z,21.2
2023-04-26T05:55:54.761Z,21.2
2023-04-26T05:57:10.904Z,21.2
2023-04-26T05:58:27.035Z,21.2
2023-04-26T05:59:43.166Z,21.2
2023-04-26T06:00:59.306Z,21.2
2023-04-26T06:02:15.447Z,21.3
2023-04-26T06:03:31.591Z,21.3
2023-04-26T06:04:47.721Z,21.3
2023-04-26T06:06:03.853Z,21.3
2023-04-26T06:07:19.993Z,21.3
2023-04-26T06:08:36.121Z,21.4
2023-04-26T06:09:52.274Z,21.4
2023-04-26T06:11:08.400Z,21.4
2023-04-26T06:12:24.544Z,21.5
2023-04-26T06:13:40.670Z,21.5
2023-04-26T06:14:56.802Z,21.5
2023-04-26T06:16:12.957Z,21.6
2023-04-26T06:17:29.087Z,21.6
2023-04-26T06:18:45.208Z,21.6
2023-04-26T06:20:01.343Z,21.6
2023-04-26T06:22:33.620Z,21.8
2023-04-26T06:23:49.770Z,21.9
2023-04-26T06:25:05.896Z,22
2023-04-26T06:26:22.098Z,22
2023-04-26T06:27:37.328Z,22
2023-04-26T06:28:52.526Z,22.1
2023-04-26T06:30:07.677Z,22.1
2023-04-26T06:31:23.831Z,22.2
2023-04-26T06:32:39.961Z,22.2
2023-04-26T06:33:56.104Z,22.2
2023-04-26T06:35:12.235Z,22.3
2023-04-26T06:36:28.359Z,22.3
2023-04-26T06:37:44.509Z,22.3
2023-04-26T06:39:00.655Z,22.4
2023-04-26T06:40:16.788Z,22.4
2023-04-26T06:41:32.914Z,22.4
2023-04-26T06:42:49.049Z,22.4
2023-04-26T06:44:05.193Z,22.5
2023-04-26T06:45:21.331Z,22.5
2023-04-26T06:46:37.471Z,22.6
2023-04-26T06:47:53.600Z,22.6
2023-04-26T06:49:09.733Z,22.6
2023-04-26T06:50:25.878Z,22.7
2023-04-26T06:51:42.004Z,22.7
2023-04-26T06:52:58.151Z,22.8
2023-04-26T06:54:14.275Z,22.8
2023-04-26T06:55:30.403Z,22.9
2023-04-26T06:56:46.551Z,22.8
2023-04-26T06:58:02.684Z,22.8
2023-04-26T06:59:18.824Z,22.8
2023-04-26T07:00:34.960Z,22.9
2023-04-26T07:01:51.091Z,22.9
2023-04-26T07:03:07.229Z,22.9
2023-04-26T07:04:23.374Z,23
2023-04-26T07:05:39.500Z,23
2023-04-26T07:06:55.643Z,23.1
2023-04-26T07:08:11.780Z,23.2
2023-04-26T07:09:27.923Z,23.3
2023-04-26T07:10:44.052Z,23.3
2023-04-26T07:12:00.175Z,23.4
2023-04-26T07:13:16.316Z,23.4
2023-04-26T07:14:32.446Z,23.5
2023-04-26T07:15:48.609Z,23.6
2023-04-26T07:17:04.796Z,23.7
2023-04-26T07:18:20.020Z,23.7
2023-04-26T07:19:35.247Z,23.7
2023-04-26T07:20:51.377Z,23.8
2023-04-26T07:22:07.512Z,23.9
2023-04-26T07:23:23.639Z,23.9
2023-04-26T07:24:39.771Z,24.1
2023-04-26T07:25:55.920Z,24.4
2023-04-26T07:27:12.056Z,24.7
2023-04-26T07:28:28.183Z,25.1
2023-04-26T07:29:44.327Z,25.4
2023-04-26T07:31:00.453Z,25.8
2023-04-26T07:32:16.608Z,26.1
2023-04-26T07:33:32.730Z,26.4
2023-04-26T07:34:48.867Z,26.6
2023-04-26T07:36:05.006Z,26.9
2023-04-26T07:37:21.131Z,27
2023-04-26T07:38:37.282Z,27.5
2023-04-26T07:39:53.410Z,28
2023-04-26T07:41:09.546Z,28.4
2023-04-26T07:42:25.682Z,28.4
2023-04-26T07:43:41.816Z,28.6
2023-04-26T07:44:57.964Z,29.1
2023-04-26T07:46:14.088Z,29.2
2023-04-26T07:47:30.231Z,29.2
2023-04-26T07:48:46.360Z,28.8
2023-04-26T07:50:02.499Z,28.5
2023-04-26T07:51:18.716Z,28.2
2023-04-26T07:52:33.936Z,28.1
2023-04-26T07:53:50.127Z,27.9
2023-04-26T07:55:05.348Z,27.8
2023-04-26T07:56:21.469Z,27.7
2023-04-26T07:57:37.605Z,27.5
2023-04-26T07:58:53.754Z,27.3
2023-04-26T08:00:09.876Z,27.1
2023-04-26T08:01:26.030Z,27
2023-04-26T08:02:42.156Z,26.9
2023-04-26T08:03:58.289Z,26.9
2023-04-26T08:05:14.428Z,26.9
2023-04-26T08:06:30.556Z,27.1
2023-04-26T08:07:46.699Z,27.1
2023-04-26T08:09:02.844Z,27.1
2023-04-26T08:10:18.966Z,27.1
2023-04-26T08:11:35.103Z,27.1
2023-04-26T08:12:51.241Z,27.2
2023-04-26T08:14:07.395Z,27.3
2023-04-26T08:15:23.529Z,27.3
2023-04-26T08:16:39.652Z,27.3
2023-04-26T08:17:55.783Z,27.4
2023-04-26T08:19:11.933Z,27.5
2023-04-26T08:20:28.064Z,27.6
2023-04-26T08:21:44.199Z,27.6
2023-04-26T08:23:00.345Z,27.7
2023-04-26T08:24:16.475Z,27.9
2023-04-26T08:25:32.607Z,28.3
2023-04-26T08:26:48.814Z,28.4
2023-04-26T08:28:04.046Z,28.2
2023-04-26T08:29:19.262Z,28.1
2023-04-26T08:30:35.410Z,28.5
2023-04-26T08:31:51.526Z,28.4
2023-04-26T08:33:07.679Z,28.3
2023-04-26T08:34:23.793Z,28.4
2023-04-26T08:35:39.941Z,29.1
2023-04-26T08:36:56.085Z,29.7
2023-04-26T08:38:12.218Z,30.2
2023-04-26T08:39:28.356Z,30.6
2023-04-26T08:40:44.477Z,31
2023-04-26T08:42:00.617Z,31.5
2023-04-26T08:43:16.774Z,31.9
2023-04-26T08:44:32.911Z,32.3
2023-04-26T08:45:49.027Z,32.6
2023-04-26T08:47:05.174Z,32.5
2023-04-26T08:48:21.314Z,32.5
2023-04-26T08:49:37.460Z,32.7
2023-04-26T08:50:53.592Z,32.8
2023-04-26T08:52:09.729Z,32.2
2023-04-26T08:53:25.860Z,31.6
2023-04-26T08:54:41.989Z,31.1
2023-04-26T08:55:58.139Z,30.6
2023-04-26T08:57:14.276Z,30.2
2023-04-26T08:58:30.395Z,30.3
2023-04-26T08:59:46.528Z,30.5
2023-04-26T09:01:02.722Z,30.1
2023-04-26T09:02:17.982Z,29.8
2023-04-26T09:03:33.203Z,29.6
2023-04-26T09:04:49.340Z,29.3
2023-04-26T09:06:05.488Z,29
2023-04-26T09:07:21.619Z,28.8
2023-04-26T09:08:37.748Z,28.6
2023-04-26T09:09:53.877Z,28.4
2023-04-26T09:11:10.013Z,28.1
2023-04-26T09:12:26.163Z,28
2023-04-26T09:13:42.288Z,27.8
2023-04-26T09:14:58.435Z,27.6
2023-04-26T09:16:14.558Z,27.5
2023-04-26T09:17:30.688Z,27.3
2023-04-26T09:18:46.854Z,27.1
2023-04-26T09:20:02.976Z,27
2023-04-26T09:21:19.117Z,26.9
2023-04-26T09:22:35.247Z,26.8
2023-04-26T09:23:51.383Z,26.7
2023-04-26T09:25:07.526Z,26.6
2023-04-26T09:26:23.661Z,26.6
2023-04-26T09:27:39.792Z,26.6
2023-04-26T09:28:55.925Z,26.6
2023-04-26T09:30:12.071Z,26.7
2023-04-26T09:31:28.212Z,26.9
2023-04-26T09:32:44.342Z,27.1
2023-04-26T09:34:00.487Z,27.1
2023-04-26T09:35:16.662Z,27.2
2023-04-26T09:36:31.916Z,27.1
2023-04-26T09:37:48.103Z,27
2023-04-26T09:39:03.303Z,26.9
2023-04-26T09:40:19.445Z,26.9
2023-04-26T09:41:35.599Z,26.9
2023-04-26T09:42:51.722Z,26.8
2023-04-26T09:44:07.852Z,26.9
2023-04-26T09:45:23.999Z,27.3
2023-04-26T09:46:40.119Z,28.2
2023-04-26T09:47:56.277Z,29.1
2023-04-26T09:49:12.404Z,29.8
2023-04-26T09:50:28.544Z,30.1
2023-04-26T09:51:44.668Z,30.6
2023-04-26T09:53:00.801Z,31.2
2023-04-26T09:54:16.943Z,31.7
2023-04-26T09:55:33.082Z,32.2
2023-04-26T09:56:49.216Z,32.5
2023-04-26T09:58:05.364Z,32.8
2023-04-26T09:59:21.498Z,33.1
2023-04-26T10:00:37.634Z,33.5
2023-04-26T10:01:53.774Z,33.5
2023-04-26T10:03:09.905Z,33.2
2023-04-26T10:04:26.049Z,33.2
2023-04-26T10:05:42.170Z,33.4
2023-04-26T10:06:58.315Z,33
2023-04-26T10:08:14.448Z,32.3
2023-04-26T10:09:30.584Z,31.7
2023-04-26T10:10:46.787Z,31.1
2023-04-26T10:12:02.013Z,30.7
2023-04-26T10:13:17.227Z,30.3
2023-04-26T10:14:32.384Z,30
2023-04-26T10:15:48.527Z,29.7
2023-04-26T10:17:04.667Z,29.4
2023-04-26T10:18:20.801Z,29.1
2023-04-26T10:19:36.938Z,28.9
2023-04-26T10:20:53.057Z,28.7
2023-04-26T10:22:09.216Z,28.5
2023-04-26T10:23:25.347Z,28.5
2023-04-26T10:24:41.487Z,28.4
2023-04-26T10:25:57.619Z,28.4
2023-04-26T10:27:13.738Z,29.1
2023-04-26T10:28:29.896Z,30.1
2023-04-26T10:29:46.031Z,30.6
2023-04-26T10:31:02.155Z,30.2
2023-04-26T10:32:18.291Z,29.9
2023-04-26T10:33:34.422Z,29.6
2023-04-26T10:34:50.590Z,29.3
2023-04-26T10:36:06.714Z,29
2023-04-26T10:37:22.843Z,28.6
2023-04-26T10:38:38.985Z,28.4
2023-04-26T10:39:55.109Z,28.1
2023-04-26T10:41:11.256Z,27.9
2023-04-26T10:42:27.403Z,27.8
2023-04-26T10:43:43.541Z,27.7
2023-04-26T10:44:59.655Z,27.6
2023-04-26T10:46:15.805Z,27.4
2023-04-26T10:47:31.947Z,27.4
2023-04-26T10:48:48.083Z,27.7
2023-04-26T10:50:04.219Z,27.6
2023-04-26T10:51:20.347Z,27.5
2023-04-26T10:52:36.475Z,27.3
2023-04-26T10:53:52.627Z,27.2
2023-04-26T10:55:08.757Z,27.1
2023-04-26T10:56:24.906Z,27
2023-04-26T10:57:41.024Z,27.1
2023-04-26T10:58:57.165Z,27.1
2023-04-26T11:00:13.304Z,27
2023-04-26T11:01:29.508Z,27
2023-04-26T11:02:44.750Z,26.9
2023-04-26T11:03:59.959Z,26.8
2023-04-26T11:05:16.074Z,26.7
2023-04-26T11:06:32.222Z,26.6
2023-04-26T11:07:48.354Z,26.4
2023-04-26T11:09:04.485Z,26.3
2023-04-26T11:10:20.629Z,26.2
2023-04-26T11:11:36.755Z,26.1
2023-04-26T11:12:52.903Z,26
2023-04-26T11:14:09.036Z,25.9
2023-04-26T11:15:25.171Z,25.8
2023-04-26T11:16:41.309Z,25.7
2023-04-26T11:17:57.442Z,25.6
2023-04-26T11:19:13.583Z,25.6
2023-04-26T11:20:29.723Z,25.5
2023-04-26T11:21:45.837Z,25.4
2023-04-26T11:23:01.989Z,25.3
2023-04-26T11:24:18.125Z,25.2
2023-04-26T11:25:34.267Z,25.1
2023-04-26T11:26:50.402Z,25
2023-04-26T11:28:06.537Z,25
2023-04-26T11:29:22.687Z,24.9
2023-04-26T11:30:38.820Z,24.8
2023-04-26T11:31:54.954Z,24.8
2023-04-26T11:33:11.084Z,24.7
2023-04-26T11:34:27.223Z,24.7
2023-04-26T11:35:43.411Z,24.7
2023-04-26T11:36:58.657Z,24.7
2023-04-26T11:38:13.859Z,24.7
2023-04-26T11:39:30.002Z,24.7
2023-04-26T11:40:46.149Z,24.7
2023-04-26T11:42:02.273Z,24.7
2023-04-26T11:43:18.407Z,24.6
2023-04-26T11:44:34.551Z,24.6
2023-04-26T11:45:50.693Z,24.6
2023-04-26T11:47:06.832Z,24.6
2023-04-26T11:48:22.963Z,24.6
2023-04-26T11:49:39.085Z,24.6
2023-04-26T11:50:55.234Z,24.5
2023-04-26T11:52:11.371Z,24.6
2023-04-26T11:53:27.508Z,24.6
2023-04-26T11:54:43.635Z,24.6
2023-04-26T11:55:59.781Z,24.7
2023-04-26T11:58:32.060Z,24.7
2023-04-26T11:59:48.186Z,24.7
2023-04-26T12:01:04.312Z,24.7
2023-04-26T12:02:20.460Z,24.7
2023-04-26T12:03:36.594Z,24.7
2023-04-26T12:04:52.742Z,24.7
2023-04-26T12:06:08.860Z,24.6
2023-04-26T12:07:24.996Z,24.6
2023-04-26T12:08:41.130Z,24.6
2023-04-26T12:09:57.331Z,24.5
2023-04-26T12:11:12.562Z,24.5
2023-04-26T12:12:28.765Z,24.5
2023-04-26T12:13:43.977Z,24.4
2023-04-26T12:15:00.114Z,24.4
2023-04-26T12:16:16.245Z,24.4
2023-04-26T12:17:32.374Z,24.3
2023-04-26T12:18:48.505Z,24.3
2023-04-26T12:20:04.644Z,24.3
2023-04-26T12:21:20.796Z,24.4
2023-04-26T12:22:36.928Z,24.4
2023-04-26T12:23:53.061Z,24.5
2023-04-26T12:25:09.195Z,24.5
2023-04-26T12:26:25.327Z,24.6
2023-04-26T12:27:41.470Z,24.6
2023-04-26T12:28:57.604Z,24.7
2023-04-26T12:30:13.734Z,24.7
2023-04-26T12:31:29.866Z,24.7
2023-04-26T12:32:45.999Z,24.6
2023-04-26T12:34:02.150Z,24.6
2023-04-26T12:35:18.282Z,24.6
2023-04-26T12:36:34.414Z,24.5
2023-04-26T12:37:50.550Z,24.5
2023-04-26T12:39:06.695Z,24.5
2023-04-26T12:40:22.839Z,24.5
2023-04-26T12:41:38.980Z,24.5
2023-04-26T12:42:55.099Z,24.6
2023-04-26T12:44:11.243Z,24.6
2023-04-26T12:45:27.432Z,24.6
2023-04-26T12:46:42.671Z,24.6
2023-04-26T12:47:57.884Z,24.7
2023-04-26T12:49:14.018Z,24.7
2023-04-26T12:50:30.165Z,24.7
2023-04-26T12:51:46.292Z,24.8
2023-04-26T12:53:02.436Z,24.8
2023-04-26T12:54:18.570Z,24.8
2023-04-26T12:55:34.692Z,24.8
2023-04-26T12:56:50.842Z,24.9
2023-04-26T12:58:06.978Z,24.9
2023-04-26T12:59:23.115Z,24.8
2023-04-26T13:00:39.248Z,24.8
2023-04-26T13:01:55.384Z,24.8
2023-04-26T13:03:11.522Z,24.7
2023-04-26T13:04:27.667Z,24.7
2023-04-26T13:05:43.795Z,24.7
2023-04-26T13:06:59.928Z,24.7
2023-04-26T13:08:16.064Z,24.7
2023-04-26T13:09:32.209Z,24.7
2023-04-26T13:10:48.348Z,24.6
2023-04-26T13:12:04.462Z,24.6
2023-04-26T13:13:20.615Z,24.6
2023-04-26T13:14:36.738Z,24.6
2023-04-26T13:15:52.892Z,24.6
2023-04-26T13:17:09.026Z,24.5
2023-04-26T13:18:25.146Z,24.5
2023-04-26T13:19:41.340Z,24.5
2023-04-26T13:20:56.606Z,24.5
2023-04-26T13:22:11.811Z,24.5
2023-04-26T13:23:26.962Z,24.5
2023-04-26T13:24:43.109Z,24.5
2023-04-26T13:25:59.235Z,24.5
2023-04-26T13:27:15.374Z,24.5
2023-04-26T13:28:31.510Z,24.5
2023-04-26T13:29:47.635Z,24.5
2023-04-26T13:31:03.803Z,24.5
2023-04-26T13:32:19.927Z,24.5
2023-04-26T13:33:36.069Z,24.4
2023-04-26T13:34:52.187Z,24.4
2023-04-26T13:36:08.333Z,24.3
2023-04-26T13:37:24.472Z,24.3
2023-04-26T13:38:40.604Z,24.3
2023-04-26T13:39:56.742Z,24.2
2023-04-26T13:41:12.878Z,24.2
2023-04-26T13:42:28.998Z,24.2
2023-04-26T13:43:45.156Z,24.2
2023-04-26T13:45:01.292Z,24.1
2023-04-26T13:46:17.427Z,24.1
2023-04-26T13:47:33.556Z,24
2023-04-26T13:48:49.686Z,24
2023-04-26T13:50:05.841Z,24
2023-04-26T13:51:21.971Z,24
2023-04-26T13:52:38.107Z,23.9
2023-04-26T13:53:54.233Z,23.9
2023-04-26T13:55:10.370Z,23.9
2023-04-26T13:56:26.519Z,23.9
2023-04-26T13:57:42.648Z,23.9
2023-04-26T13:58:58.773Z,23.8
2023-04-26T14:00:14.924Z,23.8
2023-04-26T14:01:31.058Z,23.7
2023-04-26T14:02:47.198Z,23.7
2023-04-26T14:04:03.325Z,23.7
2023-04-26T14:05:19.465Z,23.7
2023-04-26T14:06:35.606Z,23.6
2023-04-26T14:07:51.740Z,23.6
2023-04-26T14:09:07.888Z,23.6
2023-04-26T14:10:24.075Z,23.6
2023-04-26T14:11:39.302Z,23.6
2023-04-26T14:12:54.515Z,23.7
2023-04-26T14:14:10.641Z,23.7
2023-04-26T14:15:26.784Z,23.7
2023-04-26T14:16:42.913Z,23.7
2023-04-26T14:17:59.050Z,23.7
2023-04-26T14:19:15.208Z,23.7
2023-04-26T14:20:31.330Z,23.7
2023-04-26T14:21:47.473Z,23.7
2023-04-26T14:23:03.605Z,23.7
2023-04-26T14:24:19.739Z,23.7
2023-04-26T14:25:35.873Z,23.7
2023-04-26T14:26:52.021Z,23.7
2023-04-26T14:28:08.159Z,23.6
2023-04-26T14:29:24.285Z,23.6
2023-04-26T14:30:40.415Z,23.6
2023-04-26T14:31:56.570Z,23.5
2023-04-26T14:33:12.703Z,23.5
2023-04-26T14:34:28.832Z,23.4
2023-04-26T14:35:44.970Z,23.4
2023-04-26T14:37:01.109Z,23.3
2023-04-26T14:38:17.244Z,23.3
2023-04-26T14:39:33.374Z,23.3
2023-04-26T14:40:49.517Z,23.3
2023-04-26T14:42:05.649Z,23.3
2023-04-26T14:43:21.786Z,23.3
2023-04-26T14:44:37.999Z,23.2
2023-04-26T14:45:53.231Z,23.2
2023-04-26T14:47:09.430Z,23.2
2023-04-26T14:48:24.635Z,23.2
2023-04-26T14:49:40.764Z,23.2
2023-04-26T14:50:56.897Z,23.2
2023-04-26T14:52:13.024Z,23.1
2023-04-26T14:53:29.165Z,23.1
2023-04-26T14:54:45.310Z,23.1
2023-04-26T14:56:01.447Z,23.1
2023-04-26T14:57:17.568Z,23.1
2023-04-26T14:58:33.716Z,23.1
2023-04-26T14:59:49.836Z,23.1
2023-04-26T15:01:06.001Z,23.1
2023-04-26T15:02:22.124Z,23.1
2023-04-26T15:03:38.261Z,23.1
2023-04-26T15:04:54.391Z,23.1
2023-04-26T15:06:10.534Z,23.1
2023-04-26T15:07:26.669Z,23.1
2023-04-26T15:08:42.806Z,23
2023-04-26T15:09:58.941Z,23
2023-04-26T15:11:15.065Z,23
2023-04-26T15:12:31.205Z,23
2023-04-26T15:13:47.361Z,22.9
2023-04-26T15:15:03.492Z,22.9
2023-04-26T15:16:19.617Z,22.9
2023-04-26T15:17:35.746Z,22.9
2023-04-26T15:18:51.885Z,22.9
2023-04-26T15:20:08.085Z,22.8
2023-04-26T15:21:23.339Z,22.9
2023-04-26T15:22:38.604Z,22.9
2023-04-26T15:23:53.846Z,22.9
2023-04-26T15:25:09.051Z,22.9
2023-04-26T15:26:25.173Z,22.9
2023-04-26T15:27:41.330Z,22.9
2023-04-26T15:28:57.460Z,22.9
2023-04-26T15:30:13.596Z,22.9
2023-04-26T15:31:29.736Z,22.9
2023-04-26T15:32:45.859Z,22.9
2023-04-26T15:34:02.022Z,22.9
2023-04-26T15:35:18.153Z,22.9
2023-04-26T15:36:34.274Z,22.9
2023-04-26T15:37:50.416Z,22.9
2023-04-26T15:39:06.547Z,22.9
2023-04-26T15:40:22.696Z,22.9
2023-04-26T15:41:38.828Z,22.9
2023-04-26T15:42:54.951Z,22.9
2023-04-26T15:44:11.096Z,22.9
2023-04-26T15:45:27.218Z,22.9
2023-04-26T15:46:43.371Z,22.9
2023-04-26T15:47:59.497Z,22.9
2023-04-26T15:49:15.633Z,22.9
2023-04-26T15:50:31.783Z,22.9
2023-04-26T15:51:47.909Z,22.9
2023-04-26T15:53:04.046Z,22.9
2023-04-26T15:54:20.196Z,22.8
2023-04-26T15:55:36.314Z,22.8
2023-04-26T15:56:52.520Z,22.8
2023-04-26T15:58:07.726Z,22.8
2023-04-26T15:59:23.847Z,22.8
2023-04-26T16:00:39.989Z,22.7
2023-04-26T16:01:56.125Z,22.7
2023-04-26T16:03:12.264Z,22.7
2023-04-26T16:04:28.407Z,22.7
2023-04-26T16:05:44.528Z,22.7
2023-04-26T16:07:00.660Z,22.6
2023-04-26T16:08:16.803Z,22.6
2023-04-26T16:09:32.927Z,22.6
2023-04-26T16:10:49.088Z,22.6
2023-04-26T16:12:05.214Z,22.6
2023-04-26T16:13:21.347Z,22.6
2023-04-26T16:14:37.478Z,22.6
2023-04-26T16:15:53.622Z,22.5
2023-04-26T16:17:09.769Z,22.5
2023-04-26T16:18:25.900Z,22.5
2023-04-26T16:19:42.037Z,22.5
2023-04-26T16:20:58.157Z,22.5
2023-04-26T16:22:14.303Z,22.5
2023-04-26T16:23:30.437Z,22.5
2023-04-26T16:24:46.579Z,22.5
2023-04-26T16:26:02.710Z,22.4
2023-04-26T16:27:18.856Z,22.4
2023-04-26T16:28:34.974Z,22.4
2023-04-26T16:29:51.188Z,22.4
2023-04-26T16:31:06.425Z,22.4
2023-04-26T16:32:21.689Z,22.4
2023-04-26T16:33:36.943Z,22.4
2023-04-26T16:34:52.151Z,22.3
2023-04-26T16:36:08.266Z,22.3
2023-04-26T16:37:24.414Z,22.3
2023-04-26T16:38:40.554Z,22.3
2023-04-26T16:39:56.695Z,22.3
2023-04-26T16:41:12.818Z,22.3
2023-04-26T16:42:28.950Z,22.2
2023-04-26T16:43:45.108Z,22.2
2023-04-26T16:45:01.239Z,22.2
2023-04-26T16:46:17.368Z,22.2
2023-04-26T16:47:33.512Z,22.2
2023-04-26T16:48:49.642Z,22.2
2023-04-26T16:50:05.792Z,22.2
2023-04-26T16:51:21.908Z,22.2
2023-04-26T16:52:38.054Z,22.2
2023-04-26T16:53:54.182Z,22.2
2023-04-26T16:55:10.323Z,22.1
2023-04-26T16:56:26.456Z,22.2
2023-04-26T16:57:42.607Z,22.1
2023-04-26T16:58:58.725Z,22.2
2023-04-26T17:00:14.867Z,22.1
2023-04-26T17:01:30.996Z,22.2